Terminal Aerodrome Forecast
Issued by NWS

Home | Current Version | Previous Version | Text Only | Print | Product List | Glossary On
Versions: 1 2 3 4 5 6 7 8 9 10 11 12 13 14 15 16
000
FTUS46 KMTR 251120
TAFOAK
TAF
KOAK 251120Z 2512/2618 28010KT P6SM OVC010
     FM251800 29011KT P6SM SCT010
     FM252000 28015KT P6SM FEW015
     FM260400 29009KT P6SM BKN007
     FM260600 29007KT P6SM OVC006=

USA.gov is the U.S. government's official web portal to all federal, state and local government web resources and services.